sensor_id;sensor_type;location;lat;lon;timestamp;pressure;altitude;pressure_sealevel;temperature;humidity
16690;BME280;8458;52.220;9.884;2023-04-26T00:00:44;100832.28;;;4.57;80.22
16690;BME280;8458;52.220;9.884;2023-04-26T00:03:11;100833.28;;;4.63;80.61
16690;BME280;8458;52.220;9.884;2023-04-26T00:05:38;100839.41;;;4.65;80.56
16690;BME280;8458;52.220;9.884;2023-04-26T00:08:06;100837.13;;;4.55;80.69
16690;BME280;8458;52.220;9.884;2023-04-26T00:10:33;100839.03;;;4.55;80.88
16690;BME280;8458;52.220;9.884;2023-04-26T00:12:59;100849.22;;;4.47;81.13
16690;BME280;8458;52.220;9.884;2023-04-26T00:15:26;100845.03;;;4.45;81.43
16690;BME280;8458;52.220;9.884;2023-04-26T00:17:52;100846.31;;;4.42;81.86
16690;BME280;8458;52.220;9.884;2023-04-26T00:20:19;100838.06;;;4.42;81.85
16690;BME280;8458;52.220;9.884;2023-04-26T00:22:45;100846.25;;;4.49;81.59
16690;BME280;8458;52.220;9.884;2023-04-26T00:25:13;100843.69;;;4.54;81.39
16690;BME280;8458;52.220;9.884;2023-04-26T00:27:40;100843.28;;;4.51;81.23
16690;BME280;8458;52.220;9.884;2023-04-26T00:30:07;100850.31;;;4.46;81.71
16690;BME280;8458;52.220;9.884;2023-04-26T00:32:34;100844.81;;;4.46;81.40
16690;BME280;8458;52.220;9.884;2023-04-26T00:35:02;100849.22;;;4.47;81.40
16690;BME280;8458;52.220;9.884;2023-04-26T00:37:29;100837.00;;;4.43;81.33
16690;BME280;8458;52.220;9.884;2023-04-26T00:39:55;100843.28;;;4.51;81.28
16690;BME280;8458;52.220;9.884;2023-04-26T00:42:25;100839.94;;;4.48;81.13
16690;BME280;8458;52.220;9.884;2023-04-26T00:44:52;100841.19;;;4.53;80.98
16690;BME280;8458;52.220;9.884;2023-04-26T00:47:21;100845.81;;;4.52;80.75
16690;BME280;8458;52.220;9.884;2023-04-26T00:49:48;100844.59;;;4.41;81.02
16690;BME280;8458;52.220;9.884;2023-04-26T00:52:14;100847.78;;;4.38;81.21
16690;BME280;8458;52.220;9.884;2023-04-26T00:54:41;100843.00;;;4.27;81.44
16690;BME280;8458;52.220;9.884;2023-04-26T00:57:07;100855.25;;;4.31;81.79
16690;BME280;8458;52.220;9.884;2023-04-26T00:59:36;100840.69;;;4.24;82.18
16690;BME280;8458;52.220;9.884;2023-04-26T01:02:03;100839.22;;;4.28;82.41
16690;BME280;8458;52.220;9.884;2023-04-26T01:04:29;100850.41;;;4.26;82.43
16690;BME280;8458;52.220;9.884;2023-04-26T01:06:56;100848.94;;;4.24;82.76
16690;BME280;8458;52.220;9.884;2023-04-26T01:09:23;100846.00;;;4.19;83.30
16690;BME280;8458;52.220;9.884;2023-04-26T01:11:51;100854.91;;;4.07;83.41
16690;BME280;8458;52.220;9.884;2023-04-26T01:14:17;100858.88;;;4.18;83.19
16690;BME280;8458;52.220;9.884;2023-04-26T01:16:46;100857.44;;;4.16;82.85
16690;BME280;8458;52.220;9.884;2023-04-26T01:19:12;100860.41;;;4.07;83.13
16690;BME280;8458;52.220;9.884;2023-04-26T01:21:39;100861.91;;;4.03;83.11
16690;BME280;8458;52.220;9.884;2023-04-26T01:24:08;100865.94;;;3.94;83.49
16690;BME280;8458;52.220;9.884;2023-04-26T01:26:35;100864.25;;;3.93;83.86
16690;BME280;8458;52.220;9.884;2023-04-26T01:29:12;100869.94;;;3.98;84.00
16690;BME280;8458;52.220;9.884;2023-04-26T01:31:39;100866.38;;;3.91;83.76
16690;BME280;8458;52.220;9.884;2023-04-26T01:34:05;100874.88;;;3.83;83.94
16690;BME280;8458;52.220;9.884;2023-04-26T01:36:31;100871.28;;;3.75;84.46
16690;BME280;8458;52.220;9.884;2023-04-26T01:38:58;100864.31;;;3.80;84.47
16690;BME280;8458;52.220;9.884;2023-04-26T01:41:26;100872.56;;;3.80;84.58
16690;BME280;8458;52.220;9.884;2023-04-26T01:43:53;100863.50;;;3.72;84.56
16690;BME280;8458;52.220;9.884;2023-04-26T01:46:19;100867.09;;;3.66;84.92
16690;BME280;8458;52.220;9.884;2023-04-26T01:48:46;100871.53;;;3.67;84.96
16690;BME280;8458;52.220;9.884;2023-04-26T01:51:12;100869.66;;;3.61;85.23
16690;BME280;8458;52.220;9.884;2023-04-26T01:53:39;100859.72;;;3.60;85.12
16690;BME280;8458;52.220;9.884;2023-04-26T01:56:06;100868.56;;;3.62;85.37
16690;BME280;8458;52.220;9.884;2023-04-26T01:58:33;100864.78;;;3.63;85.25
16690;BME280;8458;52.220;9.884;2023-04-26T02:01:05;100865.63;;;3.57;85.42
16690;BME280;8458;52.220;9.884;2023-04-26T02:03:31;100863.13;;;3.49;85.93
16690;BME280;8458;52.220;9.884;2023-04-26T02:05:58;100867.97;;;3.47;86.11
16690;BME280;8458;52.220;9.884;2023-04-26T02:08:24;100866.28;;;3.46;86.32
16690;BME280;8458;52.220;9.884;2023-04-26T02:10:51;100873.66;;;3.45;86.38
16690;BME280;8458;52.220;9.884;2023-04-26T02:13:18;100863.34;;;3.47;86.47
16690;BME280;8458;52.220;9.884;2023-04-26T02:15:46;100857.00;;;3.47;86.55
16690;BME280;8458;52.220;9.884;2023-04-26T02:18:13;100864.78;;;3.50;86.61
16690;BME280;8458;52.220;9.884;2023-04-26T02:20:41;100858.88;;;3.53;86.26
16690;BME280;8458;52.220;9.884;2023-04-26T02:23:08;100865.66;;;3.50;86.18
16690;BME280;8458;52.220;9.884;2023-04-26T02:25:35;100862.28;;;3.55;86.16
16690;BME280;8458;52.220;9.884;2023-04-26T02:28:02;100869.41;;;3.56;85.96
16690;BME280;8458;52.220;9.884;2023-04-26T02:30:29;100854.47;;;3.52;86.05
16690;BME280;8458;52.220;9.884;2023-04-26T02:32:57;100860.16;;;3.50;86.06
16690;BME280;8458;52.220;9.884;2023-04-26T02:35:23;100864.81;;;3.43;86.30
16690;BME280;8458;52.220;9.884;2023-04-26T02:37:52;100861.03;;;3.44;86.39
16690;BME280;8458;52.220;9.884;2023-04-26T02:40:18;100865.22;;;3.53;86.09
16690;BME280;8458;52.220;9.884;2023-04-26T02:42:45;100874.09;;;3.35;86.20
16690;BME280;8458;52.220;9.884;2023-04-26T02:45:12;100871.97;;;3.37;86.33
16690;BME280;8458;52.220;9.884;2023-04-26T02:47:39;100870.50;;;3.41;86.56
16690;BME280;8458;52.220;9.884;2023-04-26T02:50:07;100872.41;;;3.41;86.34
16690;BME280;8458;52.220;9.884;2023-04-26T02:52:34;100872.41;;;3.48;86.29
16690;BME280;8458;52.220;9.884;2023-04-26T02:55:01;100873.25;;;3.55;86.21
16690;BME280;8458;52.220;9.884;2023-04-26T02:57:28;100869.44;;;3.63;85.83
16690;BME280;8458;52.220;9.884;2023-04-26T02:59:55;100867.31;;;3.65;85.21
16690;BME280;8458;52.220;9.884;2023-04-26T03:02:21;100870.25;;;3.63;85.01
16690;BME280;8458;52.220;9.884;2023-04-26T03:04:47;100875.97;;;3.55;84.84
16690;BME280;8458;52.220;9.884;2023-04-26T03:07:16;100871.13;;;3.57;85.13
16690;BME280;8458;52.220;9.884;2023-04-26T03:09:42;100860.78;;;3.66;84.85
16690;BME280;8458;52.220;9.884;2023-04-26T03:12:08;100868.78;;;3.67;84.64
16690;BME280;8458;52.220;9.884;2023-04-26T03:14:35;100863.50;;;3.72;84.38
16690;BME280;8458;52.220;9.884;2023-04-26T03:17:01;100865.41;;;3.65;84.29
16690;BME280;8458;52.220;9.884;2023-04-26T03:19:28;100866.03;;;3.67;84.40
16690;BME280;8458;52.220;9.884;2023-04-26T03:21:55;100857.59;;;3.62;84.26
16690;BME280;8458;52.220;9.884;2023-04-26T03:24:23;100861.41;;;3.61;84.22
16690;BME280;8458;52.220;9.884;2023-04-26T03:26:49;100868.56;;;3.62;84.49
16690;BME280;8458;52.220;9.884;2023-04-26T03:29:16;100861.00;;;3.64;84.57
16690;BME280;8458;52.220;9.884;2023-04-26T03:31:43;100868.38;;;3.57;84.86
16690;BME280;8458;52.220;9.884;2023-04-26T03:34:09;100869.00;;;3.52;84.67
16690;BME280;8458;52.220;9.884;2023-04-26T03:36:36;100868.81;;;3.47;85.34
16690;BME280;8458;52.220;9.884;2023-04-26T03:39:02;100864.41;;;3.39;85.60
16690;BME280;8458;52.220;9.884;2023-04-26T03:41:31;100864.81;;;3.36;86.25
16690;BME280;8458;52.220;9.884;2023-04-26T03:44:00;100864.16;;;3.48;86.13
16690;BME280;8458;52.220;9.884;2023-04-26T03:46:26;100863.28;;;3.61;85.65
16690;BME280;8458;52.220;9.884;2023-04-26T03:48:52;100866.91;;;3.48;85.47
16690;BME280;8458;52.220;9.884;2023-04-26T03:51:19;100870.31;;;3.36;85.70
16690;BME280;8458;52.220;9.884;2023-04-26T03:53:46;100873.25;;;3.41;85.90
16690;BME280;8458;52.220;9.884;2023-04-26T03:56:13;100875.38;;;3.39;85.69
16690;BME280;8458;52.220;9.884;2023-04-26T03:58:41;100881.69;;;3.53;85.45
16690;BME280;8458;52.220;9.884;2023-04-26T04:01:08;100868.59;;;3.49;85.45
16690;BME280;8458;52.220;9.884;2023-04-26T04:03:34;100863.72;;;3.57;85.22
16690;BME280;8458;52.220;9.884;2023-04-26T04:06:01;100867.34;;;3.45;85.54
16690;BME280;8458;52.220;9.884;2023-04-26T04:08:27;100876.84;;;3.49;85.82
16690;BME280;8458;52.220;9.884;2023-04-26T04:10:54;100869.84;;;3.53;85.58
16690;BME280;8458;52.220;9.884;2023-04-26T04:13:21;100878.06;;;3.53;85.85
16690;BME280;8458;52.220;9.884;2023-04-26T04:15:50;100878.72;;;3.55;85.60
16690;BME280;8458;52.220;9.884;2023-04-26T04:18:16;100873.00;;;3.63;85.46
16690;BME280;8458;52.220;9.884;2023-04-26T04:20:43;100874.72;;;3.51;85.26
16690;BME280;8458;52.220;9.884;2023-04-26T04:23:10;100872.16;;;3.56;85.36
16690;BME280;8458;52.220;9.884;2023-04-26T04:25:36;100877.88;;;3.48;85.51
16690;BME280;8458;52.220;9.884;2023-04-26T04:28:03;100876.19;;;3.47;85.78
16690;BME280;8458;52.220;9.884;2023-04-26T04:30:30;100882.31;;;3.49;85.85
16690;BME280;8458;52.220;9.884;2023-04-26T04:32:57;100874.09;;;3.49;86.02
16690;BME280;8458;52.220;9.884;2023-04-26T04:35:24;100873.66;;;3.45;86.23
16690;BME280;8458;52.220;9.884;2023-04-26T04:37:53;100881.25;;;3.50;86.36
16690;BME280;8458;52.220;9.884;2023-04-26T04:40:20;100878.28;;;3.58;86.12
16690;BME280;8458;52.220;9.884;2023-04-26T04:42:47;100880.81;;;3.53;86.27
16690;BME280;8458;52.220;9.884;2023-04-26T04:45:14;100889.69;;;3.55;86.26
16690;BME280;8458;52.220;9.884;2023-04-26T04:47:41;100892.22;;;3.50;86.72
16690;BME280;8458;52.220;9.884;2023-04-26T04:50:09;100888.84;;;3.48;87.05
16690;BME280;8458;52.220;9.884;2023-04-26T04:52:36;100883.97;;;3.50;87.42
16690;BME280;8458;52.220;9.884;2023-04-26T04:55:03;100884.63;;;3.45;87.78
16690;BME280;8458;52.220;9.884;2023-04-26T04:57:29;100890.13;;;3.52;88.19
16690;BME280;8458;52.220;9.884;2023-04-26T04:59:56;100890.75;;;3.54;88.54
16690;BME280;8458;52.220;9.884;2023-04-26T05:02:23;100892.81;;;3.65;88.78
16690;BME280;8458;52.220;9.884;2023-04-26T05:04:50;100888.63;;;3.63;89.24
16690;BME280;8458;52.220;9.884;2023-04-26T05:07:18;100892.19;;;3.63;89.65
16690;BME280;8458;52.220;9.884;2023-04-26T05:09:44;100885.44;;;3.72;89.94
16690;BME280;8458;52.220;9.884;2023-04-26T05:12:11;100885.84;;;3.83;90.08
16690;BME280;8458;52.220;9.884;2023-04-26T05:14:37;100897.44;;;3.85;90.00
16690;BME280;8458;52.220;9.884;2023-04-26T05:17:05;100896.38;;;3.86;89.91
16690;BME280;8458;52.220;9.884;2023-04-26T05:19:31;100896.16;;;3.81;90.18
16690;BME280;8458;52.220;9.884;2023-04-26T05:21:57;100895.13;;;3.75;90.02
16690;BME280;8458;52.220;9.884;2023-04-26T05:24:28;100910.13;;;3.72;89.94
16690;BME280;8458;52.220;9.884;2023-04-26T05:26:56;100898.53;;;3.70;90.28
16690;BME280;8458;52.220;9.884;2023-04-26T05:29:23;100900.19;;;3.71;90.15
16690;BME280;8458;52.220;9.884;2023-04-26T05:31:50;100906.31;;;3.73;90.44
16690;BME280;8458;52.220;9.884;2023-04-26T05:34:16;100911.97;;;3.85;90.34
16690;BME280;8458;52.220;9.884;2023-04-26T05:36:43;100914.06;;;3.90;90.30
16690;BME280;8458;52.220;9.884;2023-04-26T05:39:09;100916.00;;;3.89;90.48
16690;BME280;8458;52.220;9.884;2023-04-26T05:41:38;100920.84;;;3.94;90.46
16690;BME280;8458;52.220;9.884;2023-04-26T05:44:04;100917.88;;;3.95;90.75
16690;BME280;8458;52.220;9.884;2023-04-26T05:46:31;100921.19;;;4.04;90.69
16690;BME280;8458;52.220;9.884;2023-04-26T05:48:57;100921.84;;;4.00;90.30
16690;BME280;8458;52.220;9.884;2023-04-26T05:51:24;100925.47;;;3.93;89.76
16690;BME280;8458;52.220;9.884;2023-04-26T05:53:50;100928.19;;;4.00;89.54
16690;BME280;8458;52.220;9.884;2023-04-26T05:56:17;100934.53;;;4.01;89.63
16690;BME280;8458;52.220;9.884;2023-04-26T05:58:45;100933.44;;;4.08;89.37
16690;BME280;8458;52.220;9.884;2023-04-26T06:01:11;100931.75;;;4.14;89.01
16690;BME280;8458;52.220;9.884;2023-04-26T06:03:38;100928.97;;;4.21;89.14
16690;BME280;8458;52.220;9.884;2023-04-26T06:06:05;100927.06;;;4.28;88.55
16690;BME280;8458;52.220;9.884;2023-04-26T06:08:32;100922.84;;;4.25;88.86
16690;BME280;8458;52.220;9.884;2023-04-26T06:10:59;100924.53;;;4.20;88.31
16690;BME280;8458;52.220;9.884;2023-04-26T06:13:26;100930.25;;;4.25;87.89
16690;BME280;8458;52.220;9.884;2023-04-26T06:15:54;100929.16;;;4.33;88.56
16690;BME280;8458;52.220;9.884;2023-04-26T06:18:20;100930.38;;;4.43;88.68
16690;BME280;8458;52.220;9.884;2023-04-26T06:20:47;100927.97;;;4.54;88.18
16690;BME280;8458;52.220;9.884;2023-04-26T06:23:13;100924.78;;;4.57;87.58
16690;BME280;8458;52.220;9.884;2023-04-26T06:25:40;100932.59;;;4.60;87.40
16690;BME280;8458;52.220;9.884;2023-04-26T06:28:09;100930.44;;;4.69;87.64
16690;BME280;8458;52.220;9.884;2023-04-26T06:30:35;100937.44;;;4.64;86.88
16690;BME280;8458;52.220;9.884;2023-04-26T06:33:03;100934.03;;;4.69;87.50
16690;BME280;8458;52.220;9.884;2023-04-26T06:35:30;100929.34;;;4.76;87.61
16690;BME280;8458;52.220;9.884;2023-04-26T06:37:56;100934.13;;;4.88;86.64
16690;BME280;8458;52.220;9.884;2023-04-26T06:40:23;100936.41;;;4.97;86.07
16690;BME280;8458;52.220;9.884;2023-04-26T06:42:49;100942.66;;;5.11;86.29
16690;BME280;8458;52.220;9.884;2023-04-26T06:45:16;100949.00;;;5.12;84.36
16690;BME280;8458;52.220;9.884;2023-04-26T06:47:43;100932.63;;;5.24;84.00
16690;BME280;8458;52.220;9.884;2023-04-26T06:50:11;100935.25;;;5.37;83.52
16690;BME280;8458;52.220;9.884;2023-04-26T06:52:38;100929.47;;;5.45;82.94
16690;BME280;8458;52.220;9.884;2023-04-26T06:55:05;100935.16;;;5.50;83.14
16690;BME280;8458;52.220;9.884;2023-04-26T06:57:31;100946.03;;;5.64;81.85
16690;BME280;8458;52.220;9.884;2023-04-26T06:59:58;100946.91;;;5.64;81.66
16690;BME280;8458;52.220;9.884;2023-04-26T07:02:24;100942.94;;;5.79;82.15
16690;BME280;8458;52.220;9.884;2023-04-26T07:04:51;100946.84;;;5.89;82.16
16690;BME280;8458;52.220;9.884;2023-04-26T07:07:19;100939.66;;;5.88;80.14
16690;BME280;8458;52.220;9.884;2023-04-26T07:09:45;100939.28;;;5.85;79.30
16690;BME280;8458;52.220;9.884;2023-04-26T07:12:12;100941.19;;;5.84;80.05
16690;BME280;8458;52.220;9.884;2023-04-26T07:14:39;100944.31;;;5.88;80.90
16690;BME280;8458;52.220;9.884;2023-04-26T07:17:07;100945.59;;;5.85;80.90
16690;BME280;8458;52.220;9.884;2023-04-26T07:19:34;100941.94;;;5.91;81.59
16690;BME280;8458;52.220;9.884;2023-04-26T07:22:00;100945.34;;;5.93;80.93
16690;BME280;8458;52.220;9.884;2023-04-26T07:24:29;100941.94;;;5.91;80.29
16690;BME280;8458;52.220;9.884;2023-04-26T07:26:55;100934.66;;;6.04;79.95
16690;BME280;8458;52.220;9.884;2023-04-26T07:29:22;100933.91;;;6.15;79.38
16690;BME280;8458;52.220;9.884;2023-04-26T07:31:48;100941.31;;;6.15;77.76
16690;BME280;8458;52.220;9.884;2023-04-26T07:34:15;100952.56;;;6.13;77.57
16690;BME280;8458;52.220;9.884;2023-04-26T07:36:41;100948.50;;;6.16;78.54
16690;BME280;8458;52.220;9.884;2023-04-26T07:39:08;100945.53;;;6.17;78.29
16690;BME280;8458;52.220;9.884;2023-04-26T07:41:36;100949.97;;;6.37;78.32
16690;BME280;8458;52.220;9.884;2023-04-26T07:44:03;100945.19;;;6.44;77.75
16690;BME280;8458;52.220;9.884;2023-04-26T07:46:29;100936.81;;;6.39;77.63
16690;BME280;8458;52.220;9.884;2023-04-26T07:48:57;100955.03;;;6.40;77.58
16690;BME280;8458;52.220;9.884;2023-04-26T07:51:24;100954.38;;;6.19;76.50
16690;BME280;8458;52.220;9.884;2023-04-26T07:53:51;100950.13;;;6.23;76.68
16690;BME280;8458;52.220;9.884;2023-04-26T07:56:20;100946.13;;;6.19;77.31
16690;BME280;8458;52.220;9.884;2023-04-26T07:58:49;100956.00;;;6.27;77.44
16690;BME280;8458;52.220;9.884;2023-04-26T08:01:16;100958.53;;;6.28;77.33
16690;BME280;8458;52.220;9.884;2023-04-26T08:03:42;100954.56;;;6.43;78.03
16690;BME280;8458;52.220;9.884;2023-04-26T08:06:09;100955.25;;;6.57;76.46
16690;BME280;8458;52.220;9.884;2023-04-26T08:08:36;100945.75;;;6.83;76.82
16690;BME280;8458;52.220;9.884;2023-04-26T08:11:07;100952.25;;;6.89;73.29
16690;BME280;8458;52.220;9.884;2023-04-26T08:13:34;100958.34;;;6.91;71.71
16690;BME280;8458;52.220;9.884;2023-04-26T08:16:01;100946.91;;;7.06;70.24
16690;BME280;8458;52.220;9.884;2023-04-26T08:18:28;100955.72;;;7.14;69.59
16690;BME280;8458;52.220;9.884;2023-04-26T08:20:55;100947.72;;;7.36;70.12
16690;BME280;8458;52.220;9.884;2023-04-26T08:23:21;100956.00;;;7.36;67.41
16690;BME280;8458;52.220;9.884;2023-04-26T08:25:48;100952.28;;;7.43;68.38
16690;BME280;8458;52.220;9.884;2023-04-26T08:28:14;100954.94;;;7.61;68.91
16690;BME280;8458;52.220;9.884;2023-04-26T08:30:41;100943.53;;;7.69;68.60
16690;BME280;8458;52.220;9.884;2023-04-26T08:33:09;100951.34;;;7.72;66.61
16690;BME280;8458;52.220;9.884;2023-04-26T08:35:35;100941.88;;;7.57;63.17
16690;BME280;8458;52.220;9.884;2023-04-26T08:38:02;100953.50;;;7.47;63.90
16690;BME280;8458;52.220;9.884;2023-04-26T08:40:29;100949.31;;;7.56;65.50
16690;BME280;8458;52.220;9.884;2023-04-26T08:42:55;100951.72;;;7.76;67.00
16690;BME280;8458;52.220;9.884;2023-04-26T08:45:23;100947.41;;;7.92;66.51
16690;BME280;8458;52.220;9.884;2023-04-26T08:47:52;100949.69;;;7.95;66.85
16690;BME280;8458;52.220;9.884;2023-04-26T08:50:22;100952.44;;;7.83;63.09
16690;BME280;8458;52.220;9.884;2023-04-26T08:52:49;100959.63;;;7.72;63.05
16690;BME280;8458;52.220;9.884;2023-04-26T08:55:17;100957.22;;;7.64;63.68
16690;BME280;8458;52.220;9.884;2023-04-26T08:57:46;100959.25;;;7.57;61.83
16690;BME280;8458;52.220;9.884;2023-04-26T09:00:14;100951.34;;;7.61;62.48
16690;BME280;8458;52.220;9.884;2023-04-26T09:02:46;100959.78;;;7.78;62.47
16690;BME280;8458;52.220;9.884;2023-04-26T09:05:12;100944.38;;;7.82;62.43
16690;BME280;8458;52.220;9.884;2023-04-26T09:07:41;100952.06;;;7.92;61.39
16690;BME280;8458;52.220;9.884;2023-04-26T09:10:09;100948.34;;;7.98;61.64
16690;BME280;8458;52.220;9.884;2023-04-26T09:12:36;100949.88;;;8.05;62.65
16690;BME280;8458;52.220;9.884;2023-04-26T09:15:03;100953.13;;;8.02;60.41
16690;BME280;8458;52.220;9.884;2023-04-26T09:17:32;100949.91;;;7.82;59.20
16690;BME280;8458;52.220;9.884;2023-04-26T09:20:09;100956.88;;;7.84;59.82
16690;BME280;8458;52.220;9.884;2023-04-26T09:22:43;100950.84;;;7.99;58.11
16690;BME280;8458;52.220;9.884;2023-04-26T09:25:11;100936.91;;;8.18;58.94
16690;BME280;8458;52.220;9.884;2023-04-26T09:27:40;100943.59;;;8.46;58.34
16690;BME280;8458;52.220;9.884;2023-04-26T09:30:09;100943.91;;;8.61;57.00
16690;BME280;8458;52.220;9.884;2023-04-26T09:32:46;100948.34;;;8.74;57.63
16690;BME280;8458;52.220;9.884;2023-04-26T09:35:21;100952.47;;;8.59;58.48
16690;BME280;8458;52.220;9.884;2023-04-26T09:37:53;100954.44;;;8.35;55.86
16690;BME280;8458;52.220;9.884;2023-04-26T09:40:21;100950.81;;;8.35;56.82
16690;BME280;8458;52.220;9.884;2023-04-26T09:42:58;100951.06;;;8.33;56.91
16690;BME280;8458;52.220;9.884;2023-04-26T09:45:26;100952.75;;;8.22;55.34
16690;BME280;8458;52.220;9.884;2023-04-26T09:47:53;100949.50;;;8.37;56.29
16690;BME280;8458;52.220;9.884;2023-04-26T09:50:30;100950.06;;;8.39;56.56
16690;BME280;8458;52.220;9.884;2023-04-26T09:52:58;100951.75;;;8.40;56.75
16690;BME280;8458;52.220;9.884;2023-04-26T09:55:25;100955.25;;;8.36;58.81
16690;BME280;8458;52.220;9.884;2023-04-26T09:57:52;100958.75;;;8.31;57.66
16690;BME280;8458;52.220;9.884;2023-04-26T10:00:19;100950.47;;;8.31;58.59
16690;BME280;8458;52.220;9.884;2023-04-26T10:02:46;100963.56;;;8.24;59.37
16690;BME280;8458;52.220;9.884;2023-04-26T10:05:13;100961.41;;;8.14;59.94
16690;BME280;8458;52.220;9.884;2023-04-26T10:07:40;100968.59;;;8.27;60.29
16690;BME280;8458;52.220;9.884;2023-04-26T10:10:09;100975.56;;;8.18;57.96
16690;BME280;8458;52.220;9.884;2023-04-26T10:12:37;100972.22;;;8.16;58.67
16690;BME280;8458;52.220;9.884;2023-04-26T10:15:07;100966.22;;;8.19;59.53
16690;BME280;8458;52.220;9.884;2023-04-26T10:17:34;100970.78;;;8.25;59.76
16690;BME280;8458;52.220;9.884;2023-04-26T10:20:01;100964.19;;;8.26;58.15
16690;BME280;8458;52.220;9.884;2023-04-26T10:22:33;100964.91;;;8.21;56.08
16690;BME280;8458;52.220;9.884;2023-04-26T10:25:01;100960.94;;;8.29;57.30
16690;BME280;8458;52.220;9.884;2023-04-26T10:27:47;100955.03;;;8.25;53.49
16690;BME280;8458;52.220;9.884;2023-04-26T10:30:14;100953.94;;;8.38;55.36
16690;BME280;8458;52.220;9.884;2023-04-26T10:35:59;100950.34;;;8.50;54.10
16690;BME280;8458;52.220;9.884;2023-04-26T10:38:25;100955.97;;;8.43;54.58
16690;BME280;8458;52.220;9.884;2023-04-26T10:40:52;100949.59;;;8.42;55.24
16690;BME280;8458;52.220;9.884;2023-04-26T10:43:29;100953.72;;;8.28;55.31
16690;BME280;8458;52.220;9.884;2023-04-26T10:46:33;100946.97;;;8.24;56.72
16690;BME280;8458;52.220;9.884;2023-04-26T10:49:11;100956.47;;;8.28;57.85
16690;BME280;8458;52.220;9.884;2023-04-26T10:51:38;100952.84;;;8.39;58.45
16690;BME280;8458;52.220;9.884;2023-04-26T10:54:06;100949.25;;;8.39;55.07
16690;BME280;8458;52.220;9.884;2023-04-26T10:56:51;100949.38;;;8.44;55.04
16690;BME280;8458;52.220;9.884;2023-04-26T10:59:22;100948.16;;;8.52;54.38
16690;BME280;8458;52.220;9.884;2023-04-26T11:01:51;100950.34;;;8.50;52.39
16690;BME280;8458;52.220;9.884;2023-04-26T11:04:17;100951.72;;;8.64;51.65
16690;BME280;8458;52.220;9.884;2023-04-26T11:06:46;100944.22;;;8.76;50.70
16690;BME280;8458;52.220;9.884;2023-04-26T11:09:34;100944.44;;;8.87;50.85
16690;BME280;8458;52.220;9.884;2023-04-26T11:12:02;100946.31;;;8.98;48.84
16690;BME280;8458;52.220;9.884;2023-04-26T11:14:31;100945.66;;;9.25;49.94
16690;BME280;8458;52.220;9.884;2023-04-26T11:16:58;100935.81;;;9.46;48.54
16690;BME280;8458;52.220;9.884;2023-04-26T11:19:25;100932.75;;;9.81;49.91
16690;BME280;8458;52.220;9.884;2023-04-26T11:21:52;100927.44;;;9.97;48.72
16690;BME280;8458;52.220;9.884;2023-04-26T11:24:23;100931.91;;;9.98;49.48
16690;BME280;8458;52.220;9.884;2023-04-26T11:26:50;100930.91;;;9.87;49.46
16690;BME280;8458;52.220;9.884;2023-04-26T11:29:17;100941.00;;;9.76;46.97
16690;BME280;8458;52.220;9.884;2023-04-26T11:31:51;100936.28;;;9.77;47.89
16690;BME280;8458;52.220;9.884;2023-04-26T11:34:20;100935.97;;;9.73;48.20
16690;BME280;8458;52.220;9.884;2023-04-26T11:36:49;100948.97;;;9.56;48.10
16690;BME280;8458;52.220;9.884;2023-04-26T11:39:18;100939.66;;;9.62;47.67
16690;BME280;8458;52.220;9.884;2023-04-26T11:41:45;100941.34;;;9.63;48.15
16690;BME280;8458;52.220;9.884;2023-04-26T11:44:12;100940.75;;;9.61;48.30
16690;BME280;8458;52.220;9.884;2023-04-26T11:46:38;100947.38;;;9.60;49.21
16690;BME280;8458;52.220;9.884;2023-04-26T11:49:06;100950.72;;;9.45;49.22
16690;BME280;8458;52.220;9.884;2023-04-26T11:51:33;100945.53;;;9.48;49.53
16690;BME280;8458;52.220;9.884;2023-04-26T11:54:00;100949.56;;;9.58;50.34
16690;BME280;8458;52.220;9.884;2023-04-26T11:56:27;100948.56;;;9.47;49.71
16690;BME280;8458;52.220;9.884;2023-04-26T11:58:55;100949.97;;;9.49;50.11
16690;BME280;8458;52.220;9.884;2023-04-26T12:01:24;100954.59;;;9.44;50.91
16690;BME280;8458;52.220;9.884;2023-04-26T12:03:52;100951.88;;;9.32;51.18
16690;BME280;8458;52.220;9.884;2023-04-26T12:06:25;100945.94;;;9.40;52.07
16690;BME280;8458;52.220;9.884;2023-04-26T12:08:55;100948.69;;;9.40;51.09
16690;BME280;8458;52.220;9.884;2023-04-26T12:11:22;100945.03;;;9.35;49.33
16690;BME280;8458;52.220;9.884;2023-04-26T12:13:48;100949.53;;;9.24;50.59
16690;BME280;8458;52.220;9.884;2023-04-26T12:16:15;100951.88;;;9.15;49.87
16690;BME280;8458;52.220;9.884;2023-04-26T12:18:49;100952.22;;;9.19;51.24
16690;BME280;8458;52.220;9.884;2023-04-26T12:21:15;100960.41;;;9.13;52.00
16690;BME280;8458;52.220;9.884;2023-04-26T12:23:43;100954.72;;;9.03;51.11
16690;BME280;8458;52.220;9.884;2023-04-26T12:26:12;100953.53;;;8.99;51.38
16690;BME280;8458;52.220;9.884;2023-04-26T12:28:39;100958.66;;;9.07;51.87
16690;BME280;8458;52.220;9.884;2023-04-26T12:31:06;100958.63;;;9.36;52.59
16690;BME280;8458;52.220;9.884;2023-04-26T12:33:33;100950.72;;;9.62;50.91
16690;BME280;8458;52.220;9.884;2023-04-26T12:36:05;100940.63;;;9.90;50.64
16690;BME280;8458;52.220;9.884;2023-04-26T12:38:32;100940.94;;;10.10;50.55
16690;BME280;8458;52.220;9.884;2023-04-26T12:40:59;100944.50;;;10.28;49.40
16690;BME280;8458;52.220;9.884;2023-04-26T12:43:26;100937.66;;;10.52;49.22
16690;BME280;8458;52.220;9.884;2023-04-26T12:45:52;100935.59;;;10.65;48.76
16690;BME280;8458;52.220;9.884;2023-04-26T12:48:19;100941.31;;;10.58;47.20
16690;BME280;8458;52.220;9.884;2023-04-26T12:50:45;100939.69;;;10.62;46.46
16690;BME280;8458;52.220;9.884;2023-04-26T12:53:12;100938.00;;;10.83;46.93
16690;BME280;8458;52.220;9.884;2023-04-26T12:55:39;100935.94;;;10.96;44.57
16690;BME280;8458;52.220;9.884;2023-04-26T12:58:06;100925.44;;;11.03;44.92
16690;BME280;8458;52.220;9.884;2023-04-26T13:00:33;100928.59;;;11.11;44.52
16690;BME280;8458;52.220;9.884;2023-04-26T13:02:59;100928.88;;;11.15;43.68
16690;BME280;8458;52.220;9.884;2023-04-26T13:05:26;100933.22;;;11.06;43.42
16690;BME280;8458;52.220;9.884;2023-04-26T13:07:53;100921.34;;;11.10;44.11
16690;BME280;8458;52.220;9.884;2023-04-26T13:10:20;100930.09;;;11.24;45.01
16690;BME280;8458;52.220;9.884;2023-04-26T13:12:47;100927.41;;;11.35;45.13
16690;BME280;8458;52.220;9.884;2023-04-26T13:15:15;100925.78;;;11.06;44.06